createdAt,value
2022-12-31T00:00:15.436Z,13.41
2022-12-31T00:02:41.972Z,13.30
2022-12-31T00:05:08.460Z,13.45
2022-12-31T00:10:00.331Z,13.33
2022-12-31T00:12:26.742Z,13.29
2022-12-31T00:14:53.198Z,13.44
2022-12-31T00:17:19.801Z,13.45
2022-12-31T00:19:46.789Z,13.33
2022-12-31T00:22:13.111Z,13.37
2022-12-31T00:24:39.588Z,13.43
2022-12-31T00:27:05.989Z,13.49
2022-12-31T00:29:32.361Z,13.52
2022-12-31T00:31:58.757Z,13.59
2022-12-31T00:34:25.154Z,13.55
2022-12-31T00:36:51.505Z,13.44
2022-12-31T00:39:19.981Z,13.25
2022-12-31T00:41:46.382Z,13.16
2022-12-31T00:44:12.913Z,13.12
2022-12-31T00:49:04.554Z,13.10
2022-12-31T00:51:30.998Z,13.19
2022-12-31T00:53:59.948Z,13.14
2022-12-31T00:56:28.333Z,13.06
2022-12-31T00:58:54.845Z,13.05
2022-12-31T01:01:21.240Z,13.03
2022-12-31T01:03:47.652Z,12.78
2022-12-31T01:06:14.086Z,12.59
2022-12-31T01:08:40.424Z,12.33
2022-12-31T01:11:06.773Z,12.01
2022-12-31T01:13:33.111Z,11.67
2022-12-31T01:15:59.486Z,11.51
2022-12-31T01:18:26.002Z,11.49
2022-12-31T01:20:52.511Z,11.48
2022-12-31T01:23:18.906Z,11.49
2022-12-31T01:25:45.298Z,11.49
2022-12-31T01:28:11.693Z,11.52
2022-12-31T01:30:38.110Z,11.55
2022-12-31T01:33:04.488Z,11.51
2022-12-31T01:35:31.860Z,11.51
2022-12-31T01:37:58.242Z,11.51
2022-12-31T01:40:24.624Z,11.48
2022-12-31T01:42:53.974Z,11.41
2022-12-31T01:45:20.358Z,11.29
2022-12-31T01:47:46.747Z,11.24
2022-12-31T01:50:13.192Z,11.17
2022-12-31T01:52:39.561Z,11.11
2022-12-31T01:55:06.072Z,11.00
2022-12-31T01:57:32.452Z,11.00
2022-12-31T01:59:59.104Z,10.95
2022-12-31T02:02:25.518Z,10.90
2022-12-31T02:04:51.940Z,10.85
2022-12-31T02:07:20.565Z,10.88
2022-12-31T02:09:47.134Z,10.80
2022-12-31T02:12:13.558Z,10.74
2022-12-31T02:14:44.358Z,10.72
2022-12-31T02:17:12.078Z,10.73
2022-12-31T02:19:38.446Z,10.75
2022-12-31T02:22:05.387Z,10.78
2022-12-31T02:24:31.936Z,10.79
2022-12-31T02:26:58.304Z,10.79
2022-12-31T02:29:27.295Z,10.80
2022-12-31T02:31:53.944Z,10.79
2022-12-31T02:34:20.370Z,10.79
2022-12-31T02:36:46.732Z,10.80
2022-12-31T02:39:13.088Z,10.76
2022-12-31T02:41:39.518Z,10.71
2022-12-31T02:44:05.910Z,10.67
2022-12-31T02:46:32.613Z,10.63
2022-12-31T02:48:58.952Z,10.41
2022-12-31T02:51:26.656Z,10.35
2022-12-31T02:53:53.267Z,10.27
2022-12-31T02:56:19.724Z,10.16
2022-12-31T02:58:46.123Z,10.11
2022-12-31T03:01:12.877Z,10.04
2022-12-31T03:03:39.378Z,10.00
2022-12-31T03:06:05.850Z,9.96
2022-12-31T03:08:32.190Z,9.95
2022-12-31T03:10:59.676Z,9.93
2022-12-31T03:13:26.052Z,9.84
2022-12-31T03:15:52.541Z,9.79
2022-12-31T03:18:21.201Z,9.72
2022-12-31T03:20:47.544Z,9.64
2022-12-31T03:23:14.000Z,9.55
2022-12-31T03:25:40.638Z,9.44
2022-12-31T03:28:07.035Z,9.39
2022-12-31T03:30:33.385Z,9.33
2022-12-31T03:32:59.746Z,9.32
2022-12-31T03:35:26.292Z,9.33
2022-12-31T03:37:52.626Z,9.33
2022-12-31T03:40:19.054Z,9.30
2022-12-31T03:42:45.442Z,9.25
2022-12-31T03:45:11.863Z,9.26
2022-12-31T03:47:38.350Z,9.21
2022-12-31T03:50:04.737Z,9.16
2022-12-31T03:52:31.310Z,9.18
2022-12-31T03:54:57.653Z,9.20
2022-12-31T03:57:24.032Z,9.25
2022-12-31T03:59:50.724Z,9.29
2022-12-31T04:02:17.388Z,9.33
2022-12-31T04:04:44.032Z,9.33
2022-12-31T04:07:10.458Z,9.18
2022-12-31T04:09:37.970Z,9.23
2022-12-31T04:12:04.360Z,9.29
2022-12-31T04:14:30.998Z,9.35
2022-12-31T04:16:57.463Z,9.40
2022-12-31T04:19:24.095Z,9.47
2022-12-31T04:21:51.895Z,9.53
2022-12-31T04:24:18.357Z,9.60
2022-12-31T04:26:44.819Z,9.64
2022-12-31T04:29:13.268Z,9.70
2022-12-31T04:31:39.645Z,9.75
2022-12-31T04:34:06.081Z,9.76
2022-12-31T04:36:32.667Z,9.80
2022-12-31T04:38:59.181Z,9.82
2022-12-31T04:41:25.621Z,9.85
2022-12-31T04:43:52.255Z,9.83
2022-12-31T04:46:18.630Z,9.65
2022-12-31T04:48:45.199Z,9.64
2022-12-31T04:51:11.747Z,9.65
2022-12-31T04:53:39.220Z,9.65
2022-12-31T04:56:07.765Z,9.65
2022-12-31T04:58:34.138Z,9.61
2022-12-31T05:01:01.090Z,9.61
2022-12-31T05:03:27.831Z,9.61
2022-12-31T05:05:54.279Z,9.59
2022-12-31T05:08:20.889Z,9.53
2022-12-31T05:10:47.233Z,9.50
2022-12-31T05:13:13.614Z,9.45
2022-12-31T05:15:42.474Z,9.42
2022-12-31T05:18:10.947Z,9.36
2022-12-31T05:20:37.293Z,9.33
2022-12-31T05:23:03.619Z,9.31
2022-12-31T05:25:30.007Z,9.31
2022-12-31T05:27:56.374Z,9.30
2022-12-31T05:30:22.738Z,9.25
2022-12-31T05:32:51.380Z,9.27
2022-12-31T05:35:18.115Z,9.25
2022-12-31T05:37:44.815Z,9.20
2022-12-31T05:40:11.223Z,9.17
2022-12-31T05:42:37.656Z,9.11
2022-12-31T05:45:03.999Z,9.07
2022-12-31T05:47:30.376Z,9.11
2022-12-31T05:49:56.813Z,9.11
2022-12-31T05:52:23.375Z,9.15
2022-12-31T05:54:49.804Z,9.16
2022-12-31T05:57:16.342Z,9.19
2022-12-31T05:59:42.869Z,9.21
2022-12-31T06:02:09.368Z,9.14
2022-12-31T06:04:35.766Z,9.12
2022-12-31T06:07:02.399Z,9.09
2022-12-31T06:09:28.824Z,9.10
2022-12-31T06:11:55.277Z,9.02
2022-12-31T06:14:21.871Z,9.00
2022-12-31T06:16:48.472Z,8.95
2022-12-31T06:19:14.933Z,8.88
2022-12-31T06:21:41.303Z,8.82
2022-12-31T06:24:07.687Z,8.92
2022-12-31T06:26:34.182Z,8.76
2022-12-31T06:29:00.646Z,8.71
2022-12-31T06:31:27.047Z,8.60
2022-12-31T06:33:55.542Z,8.51
2022-12-31T06:36:25.091Z,8.49
2022-12-31T06:38:51.503Z,8.42
2022-12-31T06:41:17.928Z,8.40
2022-12-31T06:43:44.993Z,8.38
2022-12-31T06:46:11.355Z,8.33
2022-12-31T06:48:37.742Z,8.26
2022-12-31T06:51:04.097Z,8.29
2022-12-31T06:53:30.486Z,8.29
2022-12-31T06:55:56.875Z,8.29
2022-12-31T06:58:23.384Z,8.24
2022-12-31T07:00:49.878Z,8.17
2022-12-31T07:03:16.431Z,8.09
2022-12-31T07:05:43.192Z,7.99
2022-12-31T07:08:09.888Z,7.93
2022-12-31T07:10:36.821Z,7.92
2022-12-31T07:13:03.418Z,7.93
2022-12-31T07:15:30.126Z,7.94
2022-12-31T07:17:58.735Z,7.95
2022-12-31T07:20:25.431Z,7.95
2022-12-31T07:22:51.827Z,7.92
2022-12-31T07:25:20.758Z,7.80
2022-12-31T07:27:47.216Z,7.81
2022-12-31T07:30:13.987Z,7.88
2022-12-31T07:32:40.464Z,7.79
2022-12-31T07:35:07.161Z,7.76
2022-12-31T07:37:33.515Z,7.75
2022-12-31T07:39:59.995Z,7.72
2022-12-31T07:42:26.322Z,7.71
2022-12-31T07:44:52.684Z,7.73
2022-12-31T07:47:20.081Z,7.74
2022-12-31T07:49:46.655Z,7.66
2022-12-31T07:52:13.056Z,7.63
2022-12-31T07:54:39.523Z,7.53
2022-12-31T07:57:05.946Z,7.54
2022-12-31T07:59:32.503Z,7.54
2022-12-31T08:02:01.478Z,7.59
2022-12-31T08:04:28.215Z,7.62
2022-12-31T08:06:54.757Z,7.56
2022-12-31T08:09:23.743Z,7.55
2022-12-31T08:11:50.183Z,7.57
2022-12-31T08:14:16.531Z,7.57
2022-12-31T08:16:45.336Z,7.60
2022-12-31T08:19:11.708Z,7.63
2022-12-31T08:21:39.170Z,7.64
2022-12-31T08:24:05.634Z,7.68
2022-12-31T08:26:32.189Z,7.66
2022-12-31T08:28:58.587Z,7.70
2022-12-31T08:31:25.182Z,7.78
2022-12-31T08:33:51.596Z,7.80
2022-12-31T08:36:20.244Z,7.85
2022-12-31T08:38:46.820Z,7.89
2022-12-31T08:41:15.242Z,7.93
2022-12-31T08:43:41.813Z,7.99
2022-12-31T08:46:08.225Z,8.04
2022-12-31T08:48:34.827Z,8.13
2022-12-31T08:51:01.416Z,8.24
2022-12-31T08:53:27.762Z,8.22
2022-12-31T08:55:55.016Z,8.24
2022-12-31T08:58:21.390Z,8.23
2022-12-31T09:00:47.868Z,8.29
2022-12-31T09:03:14.323Z,8.27
2022-12-31T09:05:40.718Z,8.36
2022-12-31T09:08:07.116Z,8.43
2022-12-31T09:10:35.910Z,8.46
2022-12-31T09:13:02.278Z,8.55
2022-12-31T09:15:28.722Z,8.67
2022-12-31T09:17:56.303Z,8.81
2022-12-31T09:20:23.192Z,8.98
2022-12-31T09:22:49.606Z,9.12
2022-12-31T09:25:20.359Z,9.26
2022-12-31T09:27:47.131Z,9.39
2022-12-31T09:30:13.495Z,9.54
2022-12-31T09:32:39.861Z,9.66
2022-12-31T09:35:06.608Z,9.80
2022-12-31T09:37:33.327Z,9.94
2022-12-31T09:39:59.669Z,10.04
2022-12-31T09:42:26.194Z,10.13
2022-12-31T09:44:52.624Z,10.24
2022-12-31T09:47:19.202Z,10.38
2022-12-31T09:49:45.606Z,10.56
2022-12-31T09:52:13.986Z,10.68
2022-12-31T09:54:40.420Z,10.82
2022-12-31T09:57:06.944Z,10.90
2022-12-31T09:59:33.687Z,11.02
2022-12-31T10:02:00.333Z,11.08
2022-12-31T10:04:26.854Z,11.14
2022-12-31T10:06:53.235Z,11.22
2022-12-31T10:09:19.616Z,11.37
2022-12-31T10:11:46.077Z,11.47
2022-12-31T10:14:12.496Z,11.65
2022-12-31T10:16:39.237Z,11.80
2022-12-31T10:19:05.642Z,11.86
2022-12-31T10:21:31.988Z,11.95
2022-12-31T10:23:58.362Z,12.08
2022-12-31T10:26:24.775Z,12.20
2022-12-31T10:28:51.180Z,12.32
2022-12-31T10:31:17.658Z,12.42
2022-12-31T10:33:44.306Z,12.51
2022-12-31T10:36:10.719Z,12.65
2022-12-31T10:38:37.074Z,12.76
2022-12-31T10:41:03.744Z,12.88
2022-12-31T10:43:30.139Z,12.98
2022-12-31T10:45:56.561Z,13.02
2022-12-31T10:48:23.057Z,13.06
2022-12-31T10:50:49.786Z,13.11
2022-12-31T10:53:16.245Z,13.16
2022-12-31T10:55:42.719Z,13.23
2022-12-31T10:58:09.091Z,13.31
2022-12-31T11:00:35.449Z,13.32
2022-12-31T11:03:01.942Z,13.35
2022-12-31T11:05:28.409Z,13.40
2022-12-31T11:07:54.835Z,13.45
2022-12-31T11:10:21.179Z,13.50
2022-12-31T11:12:47.670Z,13.56
2022-12-31T11:15:14.030Z,13.62
2022-12-31T11:17:40.420Z,13.71
2022-12-31T11:20:06.951Z,13.78
2022-12-31T11:22:33.330Z,13.86
2022-12-31T11:24:59.836Z,13.95
2022-12-31T11:27:26.236Z,14.02
2022-12-31T11:29:52.621Z,14.05
2022-12-31T11:32:18.973Z,14.13
2022-12-31T11:34:45.407Z,14.16
2022-12-31T11:37:11.792Z,14.19
2022-12-31T11:39:38.321Z,14.25
2022-12-31T11:42:05.683Z,14.28
2022-12-31T11:44:32.056Z,14.34
2022-12-31T11:46:58.393Z,14.37
2022-12-31T11:49:24.725Z,14.41
2022-12-31T11:51:51.314Z,14.43
2022-12-31T11:54:17.781Z,14.47
2022-12-31T11:56:44.187Z,14.52
2022-12-31T11:59:15.709Z,14.54
2022-12-31T12:01:45.738Z,14.58
2022-12-31T12:04:12.250Z,14.58
2022-12-31T12:06:38.653Z,14.59
2022-12-31T12:09:05.040Z,14.63
2022-12-31T12:11:31.399Z,14.67
2022-12-31T12:13:57.958Z,14.68
2022-12-31T12:16:24.486Z,14.67
2022-12-31T12:18:50.921Z,14.68
2022-12-31T12:21:17.553Z,14.68
2022-12-31T12:23:43.959Z,14.68
2022-12-31T12:26:10.415Z,14.66
2022-12-31T12:28:42.409Z,14.65
2022-12-31T12:31:10.821Z,14.64
2022-12-31T12:33:39.357Z,14.64
2022-12-31T12:36:05.733Z,14.62
2022-12-31T12:38:32.144Z,14.61
2022-12-31T12:40:58.557Z,14.60
2022-12-31T12:43:24.932Z,14.58
2022-12-31T12:45:52.661Z,14.60
2022-12-31T12:48:19.090Z,14.59
2022-12-31T12:50:45.662Z,14.58
2022-12-31T12:53:12.030Z,14.57
2022-12-31T12:55:38.393Z,14.56
2022-12-31T12:58:04.810Z,14.55
2022-12-31T13:00:31.243Z,14.57
2022-12-31T13:02:57.778Z,14.59
2022-12-31T13:05:28.081Z,14.61
2022-12-31T13:07:54.879Z,14.63
2022-12-31T13:10:21.279Z,14.64
2022-12-31T13:13:22.662Z,14.68
2022-12-31T13:15:34.051Z,14.67
2022-12-31T13:18:02.233Z,14.70
2022-12-31T13:20:28.879Z,14.72
2022-12-31T13:22:55.267Z,14.72
2022-12-31T13:25:21.677Z,14.76
2022-12-31T13:27:48.278Z,14.76
2022-12-31T13:30:15.568Z,14.74
2022-12-31T13:32:42.132Z,14.76
2022-12-31T13:35:08.678Z,14.78
2022-12-31T13:37:35.052Z,14.79
2022-12-31T13:40:04.188Z,14.77
2022-12-31T13:42:30.533Z,14.77
2022-12-31T13:44:57.114Z,14.75
2022-12-31T13:47:23.497Z,14.75
2022-12-31T13:49:49.904Z,14.79
2022-12-31T13:52:16.255Z,14.75
2022-12-31T13:54:42.653Z,14.78
2022-12-31T13:57:09.120Z,14.79
2022-12-31T13:59:35.528Z,14.79
2022-12-31T14:02:02.107Z,14.78
2022-12-31T14:04:28.856Z,14.77
2022-12-31T14:06:55.233Z,14.74
2022-12-31T14:09:21.596Z,14.72
2022-12-31T14:11:48.031Z,14.72
2022-12-31T14:14:14.427Z,14.70
2022-12-31T14:16:40.996Z,14.67
2022-12-31T14:19:07.484Z,14.65
2022-12-31T14:21:33.835Z,14.64
2022-12-31T14:24:00.231Z,14.60
2022-12-31T14:26:26.607Z,14.60
2022-12-31T14:28:52.982Z,14.51
2022-12-31T14:31:20.112Z,14.56
2022-12-31T14:33:46.550Z,14.52
2022-12-31T14:36:12.895Z,14.40
2022-12-31T14:38:39.253Z,14.36
2022-12-31T14:41:06.087Z,14.34
2022-12-31T14:43:32.529Z,14.31
2022-12-31T14:45:59.187Z,14.29
2022-12-31T14:48:25.854Z,14.24
2022-12-31T14:50:52.440Z,14.17
2022-12-31T14:53:18.844Z,14.13
2022-12-31T14:55:45.682Z,14.09
2022-12-31T14:58:28.604Z,14.05
2022-12-31T15:00:55.815Z,14.02
2022-12-31T15:03:22.364Z,14.00
2022-12-31T15:05:50.056Z,13.95
2022-12-31T15:08:16.801Z,13.93
2022-12-31T15:10:43.512Z,13.93
2022-12-31T15:13:09.911Z,13.86
2022-12-31T15:15:39.807Z,13.87
2022-12-31T15:18:06.198Z,13.75
2022-12-31T15:20:32.596Z,13.62
2022-12-31T15:22:59.136Z,13.48
2022-12-31T15:25:25.503Z,13.40
2022-12-31T15:27:51.895Z,13.32
2022-12-31T15:30:18.307Z,13.30
2022-12-31T15:32:44.911Z,13.26
2022-12-31T15:35:11.348Z,13.25
2022-12-31T15:37:37.829Z,13.20
2022-12-31T15:40:04.244Z,13.11
2022-12-31T15:42:39.978Z,13.05
2022-12-31T15:45:07.847Z,12.87
2022-12-31T15:47:34.368Z,12.82
2022-12-31T15:50:00.860Z,12.75
2022-12-31T15:52:27.273Z,12.66
2022-12-31T15:54:53.634Z,12.59
2022-12-31T15:57:20.938Z,12.44
2022-12-31T15:59:47.285Z,12.39
2022-12-31T16:02:13.742Z,12.26
2022-12-31T16:04:40.198Z,12.18
2022-12-31T16:07:06.557Z,12.10
2022-12-31T16:09:32.904Z,12.07
2022-12-31T16:11:59.651Z,12.01
2022-12-31T16:14:25.993Z,11.98
2022-12-31T16:16:52.364Z,11.88
2022-12-31T16:19:20.851Z,11.87
2022-12-31T16:21:47.211Z,11.83
2022-12-31T16:24:13.566Z,11.75
2022-12-31T16:26:39.969Z,11.60
2022-12-31T16:29:06.365Z,11.53
2022-12-31T16:31:32.828Z,11.48
2022-12-31T16:34:00.307Z,11.42
2022-12-31T16:36:26.700Z,11.29
2022-12-31T16:38:53.092Z,11.20
2022-12-31T16:41:20.501Z,11.11
2022-12-31T16:43:46.842Z,11.06
2022-12-31T16:46:13.195Z,10.98
2022-12-31T16:48:39.599Z,10.95
2022-12-31T16:51:06.072Z,10.95
2022-12-31T16:53:32.424Z,10.93
2022-12-31T16:55:58.820Z,10.89
2022-12-31T16:58:25.370Z,10.88
2022-12-31T17:00:51.721Z,10.88
2022-12-31T17:03:18.193Z,10.87
2022-12-31T17:05:44.645Z,10.84
2022-12-31T17:08:10.985Z,10.71
2022-12-31T17:10:37.326Z,10.59
2022-12-31T17:15:50.178Z,10.42
2022-12-31T17:18:16.831Z,10.32
2022-12-31T17:20:43.234Z,10.30
2022-12-31T17:23:10.664Z,10.30
2022-12-31T17:25:37.378Z,10.32
2022-12-31T17:28:03.885Z,10.35
2022-12-31T17:30:30.500Z,10.48
2022-12-31T17:32:58.025Z,10.40
2022-12-31T17:35:24.402Z,10.34
2022-12-31T17:37:50.790Z,10.24
2022-12-31T17:40:49.995Z,10.18
2022-12-31T17:43:03.672Z,10.21
2022-12-31T17:45:32.063Z,10.26
2022-12-31T17:47:58.434Z,10.24
2022-12-31T17:50:24.803Z,10.04
2022-12-31T17:52:51.165Z,10.00
2022-12-31T17:55:17.556Z,10.04
2022-12-31T17:57:43.905Z,10.10
2022-12-31T18:00:10.597Z,10.13
2022-12-31T18:02:37.054Z,10.10
2022-12-31T18:05:03.559Z,10.07
2022-12-31T18:07:29.964Z,10.03
2022-12-31T18:09:56.678Z,10.05
2022-12-31T18:12:23.053Z,9.98
2022-12-31T18:14:49.458Z,9.90
2022-12-31T18:17:16.187Z,9.73
2022-12-31T18:22:29.043Z,9.53
2022-12-31T18:24:55.732Z,9.51
2022-12-31T18:27:22.139Z,9.47
2022-12-31T18:29:48.520Z,9.43
2022-12-31T18:32:17.307Z,9.40
2022-12-31T18:34:43.771Z,9.40
2022-12-31T18:37:10.178Z,9.39
2022-12-31T18:39:36.537Z,9.38
2022-12-31T18:42:03.016Z,9.34
2022-12-31T18:44:29.397Z,9.37
2022-12-31T18:46:55.824Z,9.34
2022-12-31T18:49:22.175Z,9.24
2022-12-31T18:51:48.556Z,9.14
2022-12-31T18:54:14.895Z,9.03
2022-12-31T18:56:46.694Z,8.93
2022-12-31T18:59:14.782Z,8.83
2022-12-31T19:01:41.188Z,8.77
2022-12-31T19:04:07.599Z,8.65
2022-12-31T19:06:33.978Z,8.61
2022-12-31T19:09:01.169Z,8.58
2022-12-31T19:11:27.731Z,8.57
2022-12-31T19:13:54.406Z,8.40
2022-12-31T19:16:20.856Z,8.45
2022-12-31T19:18:47.567Z,8.48
2022-12-31T19:21:13.985Z,8.51
2022-12-31T19:23:40.481Z,8.53
2022-12-31T19:26:07.043Z,8.54
2022-12-31T19:28:33.844Z,8.56
2022-12-31T19:31:00.397Z,8.59
2022-12-31T19:33:26.783Z,8.65
2022-12-31T19:35:53.237Z,8.68
2022-12-31T19:38:19.702Z,8.70
2022-12-31T19:40:46.066Z,8.74
2022-12-31T19:43:12.419Z,8.68
2022-12-31T19:45:38.917Z,8.57
2022-12-31T19:48:05.459Z,8.46
2022-12-31T19:50:31.807Z,8.37
2022-12-31T19:52:58.157Z,8.32
2022-12-31T19:55:24.519Z,8.25
2022-12-31T19:57:53.378Z,8.20
2022-12-31T20:00:19.709Z,8.14
2022-12-31T20:02:46.205Z,8.07
2022-12-31T20:05:12.706Z,8.03
2022-12-31T20:07:39.098Z,7.97
2022-12-31T20:10:05.444Z,7.92
2022-12-31T20:12:31.855Z,7.79
2022-12-31T20:14:58.211Z,7.75
2022-12-31T20:17:24.665Z,7.76
2022-12-31T20:19:51.117Z,7.78
2022-12-31T20:22:17.640Z,7.75
2022-12-31T20:24:44.072Z,7.73
2022-12-31T20:27:15.007Z,7.73
2022-12-31T20:29:44.714Z,7.71
2022-12-31T20:32:11.095Z,7.68
2022-12-31T20:34:37.472Z,7.70
2022-12-31T20:37:03.849Z,7.71
2022-12-31T20:39:30.372Z,7.71
2022-12-31T20:41:56.974Z,7.70
2022-12-31T20:44:23.335Z,7.70
2022-12-31T20:46:49.784Z,7.69
2022-12-31T20:49:16.213Z,7.72
2022-12-31T20:51:46.200Z,7.74
2022-12-31T20:54:16.905Z,7.71
2022-12-31T20:56:43.253Z,7.68
2022-12-31T20:59:09.610Z,7.66
2022-12-31T21:02:11.197Z,7.67
2022-12-31T21:04:22.535Z,7.60
2022-12-31T21:06:49.124Z,7.63
2022-12-31T21:09:15.517Z,7.72
2022-12-31T21:11:41.896Z,7.73
2022-12-31T21:14:08.500Z,7.80
2022-12-31T21:16:35.999Z,7.79
2022-12-31T21:19:03.499Z,7.85
2022-12-31T21:21:29.940Z,7.88
2022-12-31T21:23:57.003Z,7.87
2022-12-31T21:26:23.495Z,7.81
2022-12-31T21:28:50.040Z,7.85
2022-12-31T21:31:16.402Z,7.90
2022-12-31T21:33:45.113Z,7.87
2022-12-31T21:36:13.577Z,7.88
2022-12-31T21:38:40.228Z,7.88
2022-12-31T21:41:07.009Z,7.94
2022-12-31T21:43:33.485Z,8.04
2022-12-31T21:46:00.941Z,7.97
2022-12-31T21:48:30.476Z,7.84
2022-12-31T21:50:56.885Z,7.76
2022-12-31T21:53:31.909Z,7.87
2022-12-31T21:56:02.592Z,7.85
2022-12-31T21:58:29.949Z,7.79
2022-12-31T22:00:57.471Z,7.74
2022-12-31T22:03:25.919Z,7.62
2022-12-31T22:05:52.368Z,7.61
2022-12-31T22:08:19.236Z,7.58
2022-12-31T22:10:52.119Z,7.60
2022-12-31T22:13:19.363Z,7.65
2022-12-31T22:15:48.340Z,7.69
2022-12-31T22:18:14.824Z,7.70
2022-12-31T22:20:41.334Z,7.64
2022-12-31T22:23:07.690Z,7.64
2022-12-31T22:25:34.095Z,7.71
2022-12-31T22:30:49.683Z,7.71
2022-12-31T22:33:16.103Z,7.73
2022-12-31T22:35:42.487Z,7.72
2022-12-31T22:38:12.068Z,7.71
2022-12-31T22:40:38.855Z,7.81
2022-12-31T22:43:05.780Z,7.88
2022-12-31T22:45:32.352Z,7.89
2022-12-31T22:47:58.798Z,7.87
2022-12-31T22:50:25.163Z,7.84
2022-12-31T22:52:54.660Z,7.85
2022-12-31T22:55:22.102Z,7.86
2022-12-31T22:57:50.857Z,7.89
2022-12-31T23:00:17.246Z,7.89
2022-12-31T23:02:44.177Z,7.89
2022-12-31T23:05:15.816Z,7.93
2022-12-31T23:07:45.155Z,7.98
2022-12-31T23:10:11.751Z,8.03
2022-12-31T23:12:38.137Z,7.94
2022-12-31T23:15:04.475Z,7.82
2022-12-31T23:17:32.159Z,7.79
2022-12-31T23:19:58.704Z,7.86
2022-12-31T23:22:25.294Z,7.79
2022-12-31T23:24:51.641Z,7.77
2022-12-31T23:27:18.050Z,7.74
2022-12-31T23:29:47.486Z,7.78
2022-12-31T23:32:14.171Z,7.84
2022-12-31T23:34:40.529Z,7.89
2022-12-31T23:37:07.104Z,7.95
2022-12-31T23:39:33.522Z,7.91
2022-12-31T23:41:59.912Z,7.91
2022-12-31T23:44:27.379Z,7.94
2022-12-31T23:46:53.846Z,7.99
2022-12-31T23:49:20.211Z,8.05
2022-12-31T23:51:46.556Z,8.08
2022-12-31T23:54:15.391Z,8.10
2022-12-31T23:56:41.825Z,8.09
2022-12-31T23:59:08.244Z,8.16
